createdAt,value
2022-10-08T00:01:24.721Z,96912.50
2022-10-08T00:03:54.629Z,96906.47
2022-10-08T00:06:24.020Z,96905.88
2022-10-08T00:08:53.853Z,96906.16
2022-10-08T00:11:23.407Z,96902.78
2022-10-08T00:13:52.659Z,96911.03
2022-10-08T00:16:24.195Z,96903.44
2022-10-08T00:18:53.958Z,96901.91
2022-10-08T00:21:24.412Z,96902.03
2022-10-08T00:23:54.010Z,96910.81
2022-10-08T00:26:25.352Z,96909.00
2022-10-08T00:28:55.068Z,96906.06
2022-10-08T00:31:26.401Z,96905.19
2022-10-08T00:33:58.060Z,96906.44
2022-10-08T00:36:27.989Z,96901.13
2022-10-08T00:38:57.309Z,96900.53
2022-10-08T00:41:28.304Z,96902.50
2022-10-08T00:43:59.188Z,96899.84
2022-10-08T00:46:32.321Z,96899.13
2022-10-08T00:49:03.679Z,96902.75
2022-10-08T00:51:33.252Z,96895.06
2022-10-08T00:54:03.275Z,96893.38
2022-10-08T00:56:34.916Z,96893.25
2022-10-08T00:59:02.950Z,96891.69
2022-10-08T01:01:32.640Z,96891.81
2022-10-08T01:04:04.004Z,96894.47
2022-10-08T01:06:35.605Z,96891.09
2022-10-08T01:09:11.088Z,96889.44
2022-10-08T01:11:49.124Z,96889.28
2022-10-08T01:14:30.210Z,96881.31
2022-10-08T01:17:08.492Z,96879.38
2022-10-08T01:20:12.163Z,96874.06
2022-10-08T01:22:58.691Z,96879.66
2022-10-08T01:25:37.726Z,96880.50
2022-10-08T01:28:14.607Z,96882.31
2022-10-08T01:30:49.449Z,96881.47
2022-10-08T01:33:22.756Z,96868.06
2022-10-08T01:35:57.231Z,96885.78
2022-10-08T01:38:29.200Z,96883.97
2022-10-08T01:41:00.298Z,96885.69
2022-10-08T01:43:34.751Z,96880.25
2022-10-08T01:46:09.842Z,96874.06
2022-10-08T01:48:42.123Z,96873.84
2022-10-08T01:51:15.930Z,96867.66
2022-10-08T01:53:47.180Z,96870.19
2022-10-08T01:56:19.811Z,96861.53
2022-10-08T01:58:54.392Z,96860.69
2022-10-08T02:01:33.917Z,96857.22
2022-10-08T02:04:19.599Z,96861.28
2022-10-08T02:06:52.660Z,96852.63
2022-10-08T02:09:21.040Z,96861.00
2022-10-08T02:11:49.064Z,96859.31
2022-10-08T02:14:18.758Z,96858.34
2022-10-08T02:16:55.734Z,96852.22
2022-10-08T02:19:30.865Z,96847.88
2022-10-08T02:22:02.004Z,96854.00
2022-10-08T02:24:37.592Z,96862.97
2022-10-08T02:27:09.780Z,96859.59
2022-10-08T02:29:45.836Z,96857.91
2022-10-08T02:32:19.721Z,96856.09
2022-10-08T02:34:51.813Z,96845.50
2022-10-08T02:37:24.505Z,96849.25
2022-10-08T02:39:59.488Z,96857.91
2022-10-08T02:42:29.756Z,96853.13
2022-10-08T02:45:04.603Z,96850.59
2022-10-08T02:47:35.313Z,96854.22
2022-10-08T02:50:11.298Z,96851.00
2022-10-08T02:52:42.940Z,96852.69
2022-10-08T02:55:19.923Z,96848.34
2022-10-08T02:57:55.703Z,96857.28
2022-10-08T03:00:28.092Z,96860.06
2022-10-08T03:03:01.414Z,96868.00
2022-10-08T03:05:30.102Z,96863.81
2022-10-08T03:07:59.949Z,96873.00
2022-10-08T03:10:30.550Z,96862.53
2022-10-08T03:13:01.969Z,96867.00
2022-10-08T03:15:33.126Z,96867.84
2022-10-08T03:18:03.533Z,96865.56
2022-10-08T03:20:32.132Z,96869.88
2022-10-08T03:23:02.721Z,96871.00
2022-10-08T03:25:30.605Z,96869.44
2022-10-08T03:27:58.508Z,96869.72
2022-10-08T03:30:26.470Z,96870.66
2022-10-08T03:32:55.782Z,96878.63
2022-10-08T03:35:23.831Z,96882.50
2022-10-08T03:37:53.847Z,96881.66
2022-10-08T03:40:22.220Z,96887.56
2022-10-08T03:42:51.763Z,96890.19
2022-10-08T03:45:19.654Z,96891.19
2022-10-08T03:47:51.554Z,96891.19
2022-10-08T03:50:21.200Z,96896.72
2022-10-08T03:52:49.508Z,96899.38
2022-10-08T03:55:17.850Z,96900.34
2022-10-08T03:57:45.698Z,96896.00
2022-10-08T04:00:14.291Z,96898.66
2022-10-08T04:02:42.221Z,96897.31
2022-10-08T04:05:10.632Z,96893.47
2022-10-08T04:07:39.935Z,96902.38
2022-10-08T04:10:09.084Z,96899.59
2022-10-08T04:12:36.939Z,96915.25
2022-10-08T04:15:05.487Z,96902.31
2022-10-08T04:17:33.423Z,96905.78
2022-10-08T04:20:01.401Z,96909.44
2022-10-08T04:22:29.385Z,96911.09
2022-10-08T04:24:58.704Z,96911.22
2022-10-08T04:27:26.634Z,96906.78
2022-10-08T04:29:54.552Z,96894.47
2022-10-08T04:32:22.458Z,96896.63
2022-10-08T04:34:50.833Z,96910.59
2022-10-08T04:37:18.708Z,96909.50
2022-10-08T04:39:46.632Z,96912.00
2022-10-08T04:42:15.969Z,96915.53
2022-10-08T04:44:43.879Z,96921.38
2022-10-08T04:47:11.751Z,96906.47
2022-10-08T04:49:39.668Z,96910.78
2022-10-08T04:52:07.615Z,96913.69
2022-10-08T04:54:35.700Z,96917.31
2022-10-08T04:57:03.637Z,96928.06
2022-10-08T04:59:32.977Z,96926.50
2022-10-08T05:02:01.301Z,96932.06
2022-10-08T05:04:29.430Z,96940.88
2022-10-08T05:06:57.517Z,96943.06
2022-10-08T05:09:25.448Z,96940.53
2022-10-08T05:11:53.305Z,96943.44
2022-10-08T05:14:21.334Z,96943.69
2022-10-08T05:16:50.889Z,96950.09
2022-10-08T05:19:18.824Z,96944.06
2022-10-08T05:21:46.938Z,96940.59
2022-10-08T05:24:14.789Z,96944.59
2022-10-08T05:26:59.193Z,96951.22
2022-10-08T05:29:28.403Z,96941.72
2022-10-08T05:31:57.749Z,96945.47
2022-10-08T05:34:25.648Z,96954.63
2022-10-08T05:36:53.716Z,96947.91
2022-10-08T05:39:21.722Z,96952.50
2022-10-08T05:41:49.668Z,96952.63
2022-10-08T05:44:17.554Z,96950.56
2022-10-08T05:46:45.501Z,96953.78
2022-10-08T05:49:18.421Z,96955.47
2022-10-08T05:51:46.420Z,96961.88
2022-10-08T05:54:14.527Z,96963.81
2022-10-08T05:56:42.448Z,96961.41
2022-10-08T05:59:16.689Z,96964.06
2022-10-08T06:01:44.652Z,96975.50
2022-10-08T06:04:12.809Z,96967.22
2022-10-08T06:06:44.275Z,96967.91
2022-10-08T06:09:14.745Z,96974.91
2022-10-08T06:11:43.460Z,96979.00
2022-10-08T06:14:12.880Z,96986.81
2022-10-08T06:16:41.564Z,96987.69
2022-10-08T06:19:10.240Z,96992.00
2022-10-08T06:21:38.590Z,96991.63
2022-10-08T06:24:10.274Z,96993.31
2022-10-08T06:26:40.222Z,96991.63
2022-10-08T06:29:10.008Z,96996.56
2022-10-08T06:31:38.164Z,97004.41
2022-10-08T06:34:06.619Z,97000.66
2022-10-08T06:36:37.122Z,96999.69
2022-10-08T06:39:09.101Z,97001.38
2022-10-08T06:41:37.352Z,97008.34
2022-10-08T06:44:06.838Z,97009.66
2022-10-08T06:46:35.756Z,96998.09
2022-10-08T06:49:06.051Z,97003.13
2022-10-08T06:51:34.877Z,97011.94
2022-10-08T06:54:07.417Z,97014.34
2022-10-08T06:56:38.876Z,97011.31
2022-10-08T06:59:07.930Z,97021.78
2022-10-08T07:01:36.425Z,97019.75
2022-10-08T07:04:07.027Z,97029.25
2022-10-08T07:06:35.320Z,97025.38
2022-10-08T07:09:03.824Z,97026.69
2022-10-08T07:11:33.345Z,97027.97
2022-10-08T07:14:02.634Z,97037.25
2022-10-08T07:16:30.843Z,97037.09
2022-10-08T07:21:42.054Z,97045.84
2022-10-08T07:24:10.071Z,97045.47
2022-10-08T07:26:38.103Z,97047.50
2022-10-08T07:29:09.308Z,97052.28
2022-10-08T07:31:38.823Z,97052.06
2022-10-08T07:34:08.518Z,97056.72
2022-10-08T07:36:36.767Z,97063.44
2022-10-08T07:39:06.624Z,97066.78
2022-10-08T07:41:35.248Z,97068.84
2022-10-08T07:44:04.188Z,97063.66
2022-10-08T07:46:35.120Z,97062.63
2022-10-08T07:49:03.647Z,97069.97
2022-10-08T07:51:33.780Z,97076.22
2022-10-08T07:54:03.419Z,97072.22
2022-10-08T07:56:33.864Z,97077.97
2022-10-08T07:59:02.648Z,97077.09
2022-10-08T08:01:31.610Z,97080.09
2022-10-08T08:04:03.082Z,97080.69
2022-10-08T08:06:31.860Z,97073.66
2022-10-08T08:09:01.338Z,97073.16
2022-10-08T08:11:29.402Z,97076.47
2022-10-08T08:13:57.998Z,97081.84
2022-10-08T08:16:27.263Z,97076.53
2022-10-08T08:18:57.063Z,97079.06
2022-10-08T08:21:28.334Z,97084.63
2022-10-08T08:23:58.447Z,97080.34
2022-10-08T08:26:28.730Z,97082.00
2022-10-08T08:28:59.724Z,97088.47
2022-10-08T08:31:29.902Z,97081.59
2022-10-08T08:34:00.725Z,97087.81
2022-10-08T08:36:32.914Z,97096.91
2022-10-08T08:39:01.854Z,97098.19
2022-10-08T08:42:11.188Z,97099.03
2022-10-08T08:44:41.386Z,97102.81
2022-10-08T08:47:15.195Z,97103.53
2022-10-08T08:49:45.383Z,97095.00
2022-10-08T08:52:17.276Z,97095.44
2022-10-08T08:54:49.237Z,97099.75
2022-10-08T08:57:32.301Z,97097.69
2022-10-08T09:00:05.344Z,97101.31
2022-10-08T09:02:39.131Z,97099.25
2022-10-08T09:05:12.086Z,97100.50
2022-10-08T09:07:46.502Z,97099.94
2022-10-08T09:10:20.331Z,97096.72
2022-10-08T09:12:50.045Z,97104.72
2022-10-08T09:15:21.086Z,97105.28
2022-10-08T09:17:52.738Z,97106.44
2022-10-08T09:20:24.505Z,97100.28
2022-10-08T09:22:55.858Z,97105.88
2022-10-08T09:25:25.671Z,97107.69
2022-10-08T09:27:55.583Z,97107.97
2022-10-08T09:30:36.413Z,97111.75
2022-10-08T09:33:17.429Z,97114.81
2022-10-08T09:35:49.192Z,97127.84
2022-10-08T09:38:23.259Z,97123.91
2022-10-08T09:41:02.712Z,97120.97
2022-10-08T09:43:30.796Z,97116.25
2022-10-08T09:45:59.128Z,97115.97
2022-10-08T09:48:28.921Z,97121.56
2022-10-08T09:51:01.505Z,97125.50
2022-10-08T09:53:36.496Z,97121.44
2022-10-08T09:56:07.538Z,97130.75
2022-10-08T09:58:39.486Z,97131.13
2022-10-08T10:01:14.957Z,97125.00
2022-10-08T10:03:50.022Z,97128.09
2022-10-08T10:06:26.799Z,97130.91
2022-10-08T10:09:01.889Z,97129.63
2022-10-08T10:11:35.591Z,97129.50
2022-10-08T10:14:12.063Z,97139.75
2022-10-08T10:16:42.043Z,97135.38
2022-10-08T10:19:17.032Z,97141.69
2022-10-08T10:21:51.347Z,97149.88
2022-10-08T10:24:46.108Z,97141.25
2022-10-08T10:27:20.094Z,97141.50
2022-10-08T10:29:57.428Z,97135.94
2022-10-08T10:32:32.359Z,97134.13
2022-10-08T10:35:07.011Z,97136.44
2022-10-08T10:37:44.392Z,97132.22
2022-10-08T10:40:37.753Z,97134.75
2022-10-08T10:43:28.591Z,97137.28
2022-10-08T10:46:01.300Z,97147.38
2022-10-08T10:48:30.379Z,97130.53
2022-10-08T10:51:12.714Z,97137.81
2022-10-08T10:53:50.956Z,97137.88
2022-10-08T10:56:22.488Z,97132.41
2022-10-08T10:59:21.212Z,97133.91
2022-10-08T11:01:59.551Z,97133.66
2022-10-08T11:04:42.754Z,97131.56
2022-10-08T11:07:29.201Z,97132.59
2022-10-08T11:10:04.214Z,97129.78
2022-10-08T11:12:43.637Z,97140.81
2022-10-08T11:15:23.383Z,97134.00
2022-10-08T11:18:07.951Z,97133.00
2022-10-08T11:20:52.359Z,97130.34
2022-10-08T11:23:47.850Z,97132.44
2022-10-08T11:26:23.341Z,97141.00
2022-10-08T11:29:09.685Z,97133.44
2022-10-08T11:31:42.196Z,97131.91
2022-10-08T11:34:22.497Z,97127.56
2022-10-08T11:37:03.974Z,97133.31
2022-10-08T11:39:40.044Z,97135.13
2022-10-08T11:42:14.775Z,97129.66
2022-10-08T11:44:44.075Z,97125.31
2022-10-08T11:47:51.045Z,97131.47
2022-10-08T11:50:31.501Z,97130.38
2022-10-08T11:53:14.310Z,97139.75
2022-10-08T11:55:50.374Z,97127.56
2022-10-08T11:58:23.858Z,97129.94
2022-10-08T12:01:01.570Z,97131.47
2022-10-08T12:03:33.353Z,97134.84
2022-10-08T12:06:14.121Z,97135.41
2022-10-08T12:08:53.845Z,97131.91
2022-10-08T12:11:48.173Z,97134.16
2022-10-08T12:14:30.850Z,97127.56
2022-10-08T12:17:13.280Z,97130.25
2022-10-08T12:20:28.559Z,97125.03
2022-10-08T12:23:06.683Z,97129.66
2022-10-08T12:25:41.112Z,97132.50
2022-10-08T12:28:47.014Z,97136.53
2022-10-08T12:31:28.540Z,97139.34
2022-10-08T12:34:03.111Z,97134.16
2022-10-08T12:36:44.708Z,97133.19
2022-10-08T12:39:27.224Z,97141.03
2022-10-08T12:42:05.111Z,97141.00
2022-10-08T12:44:43.989Z,97139.91
2022-10-08T12:47:24.919Z,97136.53
2022-10-08T12:49:59.616Z,97148.72
2022-10-08T12:52:27.945Z,97140.88
2022-10-08T12:54:58.773Z,97144.25
2022-10-08T12:57:30.317Z,97163.16
2022-10-08T13:00:00.823Z,97153.31
2022-10-08T13:02:37.089Z,97157.81
2022-10-08T13:05:08.201Z,97155.56
2022-10-08T13:07:36.820Z,97145.50
2022-10-08T13:10:21.443Z,97155.03
2022-10-08T13:13:03.349Z,97143.13
2022-10-08T13:15:33.355Z,97144.38
2022-10-08T13:18:01.324Z,97149.41
2022-10-08T13:20:30.566Z,97155.16
2022-10-08T13:22:58.592Z,97152.91
2022-10-08T13:25:33.489Z,97159.22
2022-10-08T13:28:15.876Z,97149.69
2022-10-08T13:30:46.609Z,97147.16
2022-10-08T13:33:19.921Z,97148.00
2022-10-08T13:35:55.464Z,97145.91
2022-10-08T13:38:26.203Z,97147.75
2022-10-08T13:40:58.676Z,97154.03
2022-10-08T13:43:27.300Z,97144.38
2022-10-08T13:45:55.254Z,97143.13
2022-10-08T13:48:23.491Z,97143.56
2022-10-08T13:50:53.426Z,97140.06
2022-10-08T13:53:23.794Z,97138.66
2022-10-08T13:55:52.189Z,97136.53
2022-10-08T13:58:21.442Z,97137.38
2022-10-08T14:00:50.104Z,97143.69
2022-10-08T14:03:18.106Z,97145.38
2022-10-08T14:05:48.235Z,97145.38
2022-10-08T14:08:20.755Z,97145.66
2022-10-08T14:10:49.011Z,97144.41
2022-10-08T14:13:17.580Z,97146.94
2022-10-08T14:15:45.562Z,97146.94
2022-10-08T14:18:13.442Z,97147.34
2022-10-08T14:20:41.418Z,97145.09
2022-10-08T14:23:11.654Z,97148.47
2022-10-08T14:25:40.930Z,97145.22
2022-10-08T14:28:09.102Z,97144.38
2022-10-08T14:30:37.487Z,97146.91
2022-10-08T14:33:10.297Z,97143.97
2022-10-08T14:35:39.299Z,97144.50
2022-10-08T14:38:07.535Z,97145.06
2022-10-08T14:40:35.620Z,97141.00
2022-10-08T14:43:04.956Z,97140.16
2022-10-08T14:45:32.912Z,97146.03
2022-10-08T14:48:00.784Z,97142.41
2022-10-08T14:50:28.763Z,97144.78
2022-10-08T14:52:56.607Z,97144.78
2022-10-08T14:55:24.628Z,97136.78
2022-10-08T14:57:52.515Z,97145.75
2022-10-08T15:00:21.882Z,97148.56
2022-10-08T15:02:49.999Z,97153.03
2022-10-08T15:05:18.314Z,97149.97
2022-10-08T15:07:46.469Z,97148.56
2022-10-08T15:10:14.546Z,97151.34
2022-10-08T15:12:42.458Z,97152.59
2022-10-08T15:15:11.120Z,97146.31
2022-10-08T15:17:40.420Z,97135.66
2022-10-08T15:20:08.996Z,97141.94
2022-10-08T15:22:36.907Z,97142.94
2022-10-08T15:25:05.595Z,97144.88
2022-10-08T15:27:33.552Z,97146.84
2022-10-08T15:30:01.470Z,97141.50
2022-10-08T15:32:30.657Z,97156.66
2022-10-08T15:35:00.155Z,97153.84
2022-10-08T15:37:28.024Z,97156.66
2022-10-08T15:39:55.902Z,97160.25
2022-10-08T15:42:23.845Z,97164.16
2022-10-08T15:44:51.708Z,97170.44
2022-10-08T15:47:19.619Z,97173.97
2022-10-08T15:49:47.599Z,97174.09
2022-10-08T15:52:19.910Z,97181.25
2022-10-08T15:54:48.518Z,97172.28
2022-10-08T15:57:18.274Z,97178.59
2022-10-08T15:59:46.134Z,97176.72
2022-10-08T16:02:17.599Z,97176.72
2022-10-08T16:04:46.941Z,97178.09
2022-10-08T16:07:16.263Z,97178.78
2022-10-08T16:09:44.230Z,97189.00
2022-10-08T16:12:12.137Z,97188.56
2022-10-08T16:14:39.989Z,97192.91
2022-10-08T16:17:08.053Z,97185.19
2022-10-08T16:19:36.007Z,97190.50
2022-10-08T16:22:04.083Z,97192.59
2022-10-08T16:24:33.337Z,97200.13
2022-10-08T16:27:01.253Z,97196.28
2022-10-08T16:29:29.408Z,97204.44
2022-10-08T16:31:57.287Z,97204.53
2022-10-08T16:34:27.028Z,97206.03
2022-10-08T16:36:55.411Z,97201.50
2022-10-08T16:39:25.030Z,97210.47
2022-10-08T16:41:54.379Z,97212.91
2022-10-08T16:44:23.034Z,97213.63
2022-10-08T16:46:53.015Z,97215.00
2022-10-08T16:49:25.418Z,97212.47
2022-10-08T16:51:55.198Z,97216.72
2022-10-08T16:54:23.562Z,97214.06
2022-10-08T16:56:51.533Z,97225.91
2022-10-08T16:59:22.500Z,97231.03
2022-10-08T17:01:52.194Z,97236.34
2022-10-08T17:04:21.261Z,97236.63
2022-10-08T17:06:49.458Z,97251.94
2022-10-08T17:09:17.859Z,97248.72
2022-10-08T17:11:45.972Z,97244.00
2022-10-08T17:14:14.475Z,97257.66
2022-10-08T17:16:45.080Z,97260.44
2022-10-08T17:19:13.420Z,97256.44
2022-10-08T17:21:42.231Z,97266.50
2022-10-08T17:24:11.728Z,97274.81
2022-10-08T17:26:40.107Z,97266.13
2022-10-08T17:29:09.652Z,97267.34
2022-10-08T17:31:38.325Z,97267.13
2022-10-08T17:34:08.395Z,97278.47
2022-10-08T17:36:38.459Z,97284.78
2022-10-08T17:39:08.738Z,97281.59
2022-10-08T17:41:38.347Z,97282.22
2022-10-08T17:44:08.329Z,97287.31
2022-10-08T17:46:37.943Z,97295.72
2022-10-08T17:49:07.580Z,97296.91
2022-10-08T17:51:35.656Z,97297.50
2022-10-08T17:54:06.124Z,97296.53
2022-10-08T17:56:35.049Z,97302.69
2022-10-08T17:59:02.907Z,97304.00
2022-10-08T18:01:33.132Z,97309.53
2022-10-08T18:04:02.669Z,97311.94
2022-10-08T18:06:33.375Z,97317.59
2022-10-08T18:09:03.103Z,97321.66
2022-10-08T18:11:33.470Z,97326.34
2022-10-08T18:14:02.656Z,97321.16
2022-10-08T18:16:30.694Z,97325.31
2022-10-08T18:18:58.658Z,97329.88
2022-10-08T18:21:27.113Z,97332.13
2022-10-08T18:23:56.410Z,97339.56
2022-10-08T18:26:26.300Z,97336.53
2022-10-08T18:28:56.294Z,97344.06
2022-10-08T18:31:26.235Z,97348.63
2022-10-08T18:33:56.860Z,97356.31
2022-10-08T18:36:26.492Z,97346.88
2022-10-08T18:38:57.538Z,97349.03
2022-10-08T18:41:27.870Z,97365.47
2022-10-08T18:43:56.174Z,97356.91
2022-10-08T18:46:24.640Z,97357.13
2022-10-08T18:48:52.876Z,97363.50
2022-10-08T18:51:22.390Z,97365.50
2022-10-08T18:53:52.256Z,97360.44
2022-10-08T18:56:25.334Z,97367.63
2022-10-08T18:58:53.665Z,97368.19
2022-10-08T19:01:23.115Z,97362.16
2022-10-08T19:03:53.636Z,97370.19
2022-10-08T19:06:23.789Z,97374.84
2022-10-08T19:08:52.011Z,97381.22
2022-10-08T19:11:24.064Z,97384.06
2022-10-08T19:13:53.642Z,97387.75
2022-10-08T19:16:21.831Z,97386.63
2022-10-08T19:18:54.274Z,97385.13
2022-10-08T19:21:22.976Z,97391.19
2022-10-08T19:23:51.244Z,97387.13
2022-10-08T19:26:19.875Z,97386.44
2022-10-08T19:28:51.292Z,97396.78
2022-10-08T19:31:21.496Z,97395.06
2022-10-08T19:33:50.631Z,97393.63
2022-10-08T19:36:18.833Z,97393.72
2022-10-08T19:38:52.373Z,97399.31
2022-10-08T19:41:20.559Z,97406.09
2022-10-08T19:43:49.785Z,97407.78
2022-10-08T19:46:18.042Z,97401.41
2022-10-08T19:48:49.643Z,97410.41
2022-10-08T19:51:18.439Z,97408.84
2022-10-08T19:53:46.791Z,97427.25
2022-10-08T19:56:15.261Z,97419.94
2022-10-08T19:58:48.480Z,97423.88
2022-10-08T20:01:20.191Z,97428.50
2022-10-08T20:03:48.321Z,97433.78
2022-10-08T20:06:23.243Z,97425.97
2022-10-08T20:08:54.645Z,97423.44
2022-10-08T20:11:23.396Z,97428.63
2022-10-08T20:13:53.039Z,97435.81
2022-10-08T20:16:24.261Z,97434.00
2022-10-08T20:18:53.741Z,97433.78
2022-10-08T20:21:22.285Z,97441.00
2022-10-08T20:23:50.517Z,97433.06
2022-10-08T20:26:20.070Z,97440.78
2022-10-08T20:28:49.435Z,97439.63
2022-10-08T20:31:19.472Z,97440.13
2022-10-08T20:33:49.150Z,97435.28
2022-10-08T20:36:18.071Z,97441.53
2022-10-08T20:38:45.975Z,97443.00
2022-10-08T20:41:13.856Z,97440.47
2022-10-08T20:43:41.728Z,97437.94
2022-10-08T20:46:12.003Z,97441.41
2022-10-08T20:48:41.820Z,97440.66
2022-10-08T20:51:13.138Z,97439.81
2022-10-08T20:53:41.833Z,97443.13
2022-10-08T20:56:12.156Z,97444.94
2022-10-08T20:58:40.541Z,97443.97
2022-10-08T21:01:10.348Z,97447.75
2022-10-08T21:03:39.354Z,97442.47
2022-10-08T21:06:08.514Z,97441.53
2022-10-08T21:08:39.352Z,97442.47
2022-10-08T21:11:08.878Z,97440.13
2022-10-08T21:13:37.282Z,97447.00
2022-10-08T21:16:07.536Z,97447.97
2022-10-08T21:18:36.716Z,97444.38
2022-10-08T21:21:05.442Z,97446.38
2022-10-08T21:23:33.934Z,97443.84
2022-10-08T21:26:12.515Z,97445.00
2022-10-08T21:28:40.755Z,97453.97
2022-10-08T21:31:09.714Z,97454.19
2022-10-08T21:33:38.562Z,97455.03
2022-10-08T21:36:08.242Z,97455.34
2022-10-08T21:38:36.165Z,97454.28
2022-10-08T21:41:11.724Z,97456.22
2022-10-08T21:43:41.426Z,97454.50
2022-10-08T21:46:10.668Z,97460.00
2022-10-08T21:48:39.351Z,97460.19
2022-10-08T21:51:09.771Z,97456.06
2022-10-08T21:53:39.715Z,97459.66
2022-10-08T21:56:09.429Z,97467.00
2022-10-08T21:58:39.430Z,97468.06
2022-10-08T22:01:18.961Z,97468.34
2022-10-08T22:03:47.274Z,97463.28
2022-10-08T22:06:15.190Z,97466.09
2022-10-08T22:08:43.023Z,97465.56
2022-10-08T22:11:11.344Z,97455.41
2022-10-08T22:13:39.364Z,97466.81
2022-10-08T22:16:09.511Z,97452.22
2022-10-08T22:18:37.602Z,97456.63
2022-10-08T22:21:07.511Z,97458.19
2022-10-08T22:23:36.894Z,97461.22
2022-10-08T22:26:07.647Z,97456.97
2022-10-08T22:28:36.234Z,97445.97
2022-10-08T22:31:05.949Z,97455.69
2022-10-08T22:33:36.230Z,97452.28
2022-10-08T22:36:05.688Z,97445.53
2022-10-08T22:38:34.394Z,97443.34
2022-10-08T22:41:03.314Z,97445.22
2022-10-08T22:43:31.255Z,97451.69
2022-10-08T22:46:03.035Z,97451.75
2022-10-08T22:48:31.362Z,97448.09
2022-10-08T22:51:03.589Z,97444.50
2022-10-08T22:53:31.615Z,97447.63
2022-10-08T22:56:00.155Z,97445.94
2022-10-08T22:58:28.006Z,97443.47
2022-10-08T23:00:59.882Z,97442.94
2022-10-08T23:03:27.789Z,97442.94
2022-10-08T23:06:05.382Z,97436.16
2022-10-08T23:08:33.686Z,97433.59
2022-10-08T23:11:02.193Z,97434.66
2022-10-08T23:13:31.244Z,97437.28
2022-10-08T23:16:00.571Z,97431.25
2022-10-08T23:18:28.463Z,97431.53
2022-10-08T23:20:56.323Z,97426.91
2022-10-08T23:23:25.610Z,97432.56
2022-10-08T23:25:54.644Z,97427.19
2022-10-08T23:28:22.665Z,97427.09
2022-10-08T23:30:50.748Z,97428.22
2022-10-08T23:33:18.737Z,97430.97
2022-10-08T23:35:54.043Z,97418.44
2022-10-08T23:38:22.000Z,97422.94
2022-10-08T23:40:51.596Z,97427.47
2022-10-08T23:43:19.507Z,97425.97
2022-10-08T23:45:47.494Z,97421.81
2022-10-08T23:48:15.400Z,97419.38
2022-10-08T23:50:43.315Z,97418.91
2022-10-08T23:53:11.492Z,97416.34
2022-10-08T23:55:39.372Z,97427.09
2022-10-08T23:58:08.597Z,97418.59
